createdAt,value
2023-02-02T00:01:30.669Z,6.20
2023-02-02T00:04:03.677Z,6.20
2023-02-02T00:06:36.834Z,6.10
2023-02-02T00:09:11.297Z,6.10
2023-02-02T00:11:45.365Z,6.10
2023-02-02T00:14:18.785Z,6.10
2023-02-02T00:16:53.088Z,6.10
2023-02-02T00:19:28.290Z,6.10
2023-02-02T00:22:00.964Z,6.10
2023-02-02T00:24:33.791Z,6.10
2023-02-02T00:27:06.437Z,6.10
2023-02-02T00:29:40.684Z,6.10
2023-02-02T00:32:13.466Z,6.10
2023-02-02T00:34:46.334Z,6.10
2023-02-02T00:37:19.157Z,6.10
2023-02-02T00:39:51.891Z,6.10
2023-02-02T00:42:24.722Z,6.10
2023-02-02T00:45:16.091Z,6.10
2023-02-02T00:47:49.581Z,6.10
2023-02-02T00:50:22.365Z,6.10
2023-02-02T00:52:55.320Z,6.10
2023-02-02T00:55:28.268Z,6.10
2023-02-02T00:58:01.059Z,6.10
2023-02-02T01:00:33.765Z,6.10
2023-02-02T01:03:06.997Z,6.10
2023-02-02T01:05:40.137Z,6.10
2023-02-02T01:08:12.835Z,6.10
2023-02-02T01:10:45.554Z,6.10
2023-02-02T01:13:18.267Z,6.10
2023-02-02T01:15:55.996Z,6.10
2023-02-02T01:18:29.641Z,6.10
2023-02-02T01:21:11.076Z,6.10
2023-02-02T01:23:43.937Z,6.10
2023-02-02T01:26:17.067Z,6.10
2023-02-02T01:28:49.972Z,6.10
2023-02-02T01:31:23.138Z,6.10
2023-02-02T01:33:55.833Z,6.10
2023-02-02T01:36:28.938Z,6.10
2023-02-02T01:39:01.677Z,6.10
2023-02-02T01:41:34.821Z,6.10
2023-02-02T01:44:46.153Z,6.10
2023-02-02T01:47:21.952Z,6.10
2023-02-02T01:49:55.857Z,6.10
2023-02-02T01:52:32.055Z,6.10
2023-02-02T01:55:09.309Z,6.10
2023-02-02T01:57:51.768Z,6.10
2023-02-02T02:00:27.135Z,6.10
2023-02-02T02:03:06.297Z,6.10
2023-02-02T02:05:44.207Z,6.10
2023-02-02T02:08:28.079Z,6.10
2023-02-02T02:11:01.326Z,6.10
2023-02-02T02:13:57.262Z,6.10
2023-02-02T02:16:52.330Z,6.10
2023-02-02T02:20:21.662Z,6.10
2023-02-02T02:23:50.761Z,6.10
2023-02-02T02:26:48.738Z,6.10
2023-02-02T02:29:37.068Z,6.10
2023-02-02T02:32:19.225Z,6.00
2023-02-02T02:35:24.629Z,6.00
2023-02-02T02:38:10.812Z,6.00
2023-02-02T02:40:53.756Z,6.00
2023-02-02T02:43:40.504Z,6.00
2023-02-02T02:46:14.836Z,6.00
2023-02-02T02:48:47.803Z,6.00
2023-02-02T02:51:57.762Z,6.00
2023-02-02T02:54:56.340Z,6.00
2023-02-02T02:57:56.922Z,6.00
2023-02-02T03:00:38.564Z,6.00
2023-02-02T03:03:37.692Z,6.00
2023-02-02T03:06:22.958Z,6.00
2023-02-02T03:09:01.313Z,6.00
2023-02-02T03:11:35.300Z,6.00
2023-02-02T03:14:09.654Z,6.00
2023-02-02T03:16:42.405Z,6.00
2023-02-02T03:19:15.120Z,6.00
2023-02-02T03:21:47.784Z,6.00
2023-02-02T03:24:20.501Z,6.00
2023-02-02T03:26:53.496Z,6.00
2023-02-02T03:29:26.696Z,6.00
2023-02-02T03:31:59.577Z,6.00
2023-02-02T03:34:32.317Z,6.00
2023-02-02T03:37:04.998Z,6.00
2023-02-02T03:39:37.697Z,6.00
2023-02-02T03:42:10.452Z,6.00
2023-02-02T03:44:43.150Z,6.00
2023-02-02T03:47:15.892Z,6.00
2023-02-02T03:49:48.630Z,6.00
2023-02-02T03:52:21.450Z,6.00
2023-02-02T03:54:54.275Z,6.00
2023-02-02T03:57:27.020Z,6.00
2023-02-02T03:59:59.691Z,6.00
2023-02-02T04:02:32.494Z,6.00
2023-02-02T04:05:05.747Z,6.00
2023-02-02T04:07:38.529Z,6.00
2023-02-02T04:10:11.850Z,6.00
2023-02-02T04:12:44.558Z,6.10
2023-02-02T04:15:17.298Z,6.00
2023-02-02T04:17:50.029Z,6.00
2023-02-02T04:20:22.706Z,6.00
2023-02-02T04:22:55.340Z,6.00
2023-02-02T04:25:28.224Z,6.00
2023-02-02T04:28:00.942Z,6.10
2023-02-02T04:30:33.722Z,6.10
2023-02-02T04:33:06.392Z,6.10
2023-02-02T04:35:39.124Z,6.10
2023-02-02T04:38:12.294Z,6.10
2023-02-02T04:40:47.095Z,6.10
2023-02-02T04:43:19.860Z,6.10
2023-02-02T04:45:57.259Z,6.10
2023-02-02T04:48:30.574Z,6.10
2023-02-02T04:51:06.020Z,6.10
2023-02-02T04:53:39.720Z,6.10
2023-02-02T04:56:16.043Z,6.10
2023-02-02T04:58:48.806Z,6.10
2023-02-02T05:01:22.149Z,6.10
2023-02-02T05:03:55.084Z,6.10
2023-02-02T05:06:27.828Z,6.10
2023-02-02T05:09:01.103Z,6.10
2023-02-02T05:11:34.264Z,6.10
2023-02-02T05:14:07.022Z,6.10
2023-02-02T05:16:39.756Z,6.10
2023-02-02T05:19:12.902Z,6.10
2023-02-02T05:21:50.610Z,6.10
2023-02-02T05:24:23.637Z,6.10
2023-02-02T05:27:00.407Z,6.10
2023-02-02T05:29:33.185Z,6.10
2023-02-02T05:32:06.098Z,6.10
2023-02-02T05:34:38.979Z,6.10
2023-02-02T05:37:11.653Z,6.10
2023-02-02T05:39:44.353Z,6.10
2023-02-02T05:42:17.937Z,6.10
2023-02-02T05:44:50.647Z,6.10
2023-02-02T05:47:23.358Z,6.10
2023-02-02T05:49:56.734Z,6.10
2023-02-02T05:52:33.389Z,6.10
2023-02-02T05:55:06.568Z,6.10
2023-02-02T05:57:39.439Z,6.10
2023-02-02T06:00:13.096Z,6.20
2023-02-02T06:02:46.507Z,6.10
2023-02-02T06:05:19.292Z,6.10
2023-02-02T06:07:52.237Z,6.20
2023-02-02T06:10:24.996Z,6.20
2023-02-02T06:12:59.370Z,6.20
2023-02-02T06:15:33.006Z,6.10
2023-02-02T06:18:07.481Z,6.10
2023-02-02T06:20:40.563Z,6.10
2023-02-02T06:23:13.238Z,6.20
2023-02-02T06:25:45.985Z,6.10
2023-02-02T06:28:18.816Z,6.10
2023-02-02T06:30:51.699Z,6.10
2023-02-02T06:33:24.610Z,6.10
2023-02-02T06:36:02.100Z,6.10
2023-02-02T06:38:34.833Z,6.10
2023-02-02T06:41:07.644Z,6.10
2023-02-02T06:43:40.272Z,6.10
2023-02-02T06:46:13.896Z,6.10
2023-02-02T06:48:46.595Z,6.10
2023-02-02T06:51:20.160Z,6.10
2023-02-02T06:54:22.827Z,6.10
2023-02-02T06:56:52.855Z,6.10
2023-02-02T06:59:25.555Z,6.10
2023-02-02T07:01:58.336Z,6.10
2023-02-02T07:04:31.311Z,6.10
2023-02-02T07:07:04.549Z,6.10
2023-02-02T07:09:37.470Z,6.10
2023-02-02T07:12:10.234Z,6.10
2023-02-02T07:14:42.938Z,6.10
2023-02-02T07:17:16.187Z,6.10
2023-02-02T07:19:48.916Z,6.10
2023-02-02T07:22:21.841Z,6.20
2023-02-02T07:24:54.482Z,6.20
2023-02-02T07:27:27.209Z,6.20
2023-02-02T07:30:00.195Z,6.20
2023-02-02T07:32:32.902Z,6.20
2023-02-02T07:35:06.034Z,6.20
2023-02-02T07:37:40.084Z,6.20
2023-02-02T07:40:13.377Z,6.20
2023-02-02T07:42:48.356Z,6.20
2023-02-02T07:45:25.572Z,6.20
2023-02-02T07:48:02.567Z,6.20
2023-02-02T07:50:35.437Z,6.20
2023-02-02T07:53:08.240Z,6.20
2023-02-02T07:55:41.004Z,6.20
2023-02-02T07:58:13.683Z,6.20
2023-02-02T08:00:46.489Z,6.20
2023-02-02T08:03:19.420Z,6.20
2023-02-02T08:05:52.221Z,6.30
2023-02-02T08:08:25.468Z,6.20
2023-02-02T08:10:58.211Z,6.30
2023-02-02T08:13:31.128Z,6.30
2023-02-02T08:16:04.280Z,6.30
2023-02-02T08:18:38.394Z,6.20
2023-02-02T08:21:11.523Z,6.20
2023-02-02T08:23:45.669Z,6.20
2023-02-02T08:26:27.103Z,6.20
2023-02-02T08:29:03.977Z,6.20
2023-02-02T08:31:41.641Z,6.20
2023-02-02T08:34:14.414Z,6.20
2023-02-02T08:36:47.217Z,6.20
2023-02-02T08:39:20.007Z,6.30
2023-02-02T08:41:57.903Z,6.20
2023-02-02T08:45:59.837Z,6.30
2023-02-02T08:47:23.408Z,6.30
2023-02-02T08:49:56.186Z,6.30
2023-02-02T08:52:28.848Z,6.30
2023-02-02T08:55:01.559Z,6.30
2023-02-02T08:57:34.450Z,6.40
2023-02-02T09:00:07.793Z,6.40
2023-02-02T09:02:40.754Z,6.40
2023-02-02T09:05:13.516Z,6.50
2023-02-02T09:07:46.471Z,6.50
2023-02-02T09:10:19.407Z,6.50
2023-02-02T09:12:52.352Z,6.50
2023-02-02T09:15:25.503Z,6.50
2023-02-02T09:17:58.442Z,6.50
2023-02-02T09:20:31.822Z,6.50
2023-02-02T09:23:04.873Z,6.50
2023-02-02T09:25:37.558Z,6.50
2023-02-02T09:28:10.383Z,6.50
2023-02-02T09:30:43.296Z,6.50
2023-02-02T09:33:16.029Z,6.60
2023-02-02T09:35:49.158Z,6.60
2023-02-02T09:38:22.025Z,6.70
2023-02-02T09:40:55.270Z,6.80
2023-02-02T09:44:03.239Z,6.80
2023-02-02T09:46:59.985Z,6.90
2023-02-02T09:49:47.600Z,7.00
2023-02-02T09:52:31.005Z,7.10
2023-02-02T09:55:19.481Z,7.20
2023-02-02T09:57:58.243Z,7.20
2023-02-02T10:00:38.183Z,7.30
2023-02-02T10:03:19.172Z,7.20
2023-02-02T10:05:57.844Z,7.20
2023-02-02T10:08:38.973Z,7.20
2023-02-02T10:11:25.973Z,7.10
2023-02-02T10:14:30.987Z,7.10
2023-02-02T10:17:35.092Z,7.10
2023-02-02T10:20:16.942Z,7.10
2023-02-02T10:22:50.501Z,7.10
2023-02-02T10:25:27.758Z,7.10
2023-02-02T10:28:24.714Z,7.10
2023-02-02T10:31:01.949Z,7.10
2023-02-02T10:33:39.781Z,7.20
2023-02-02T10:36:21.634Z,7.20
2023-02-02T10:39:08.419Z,7.20
2023-02-02T10:41:56.981Z,7.30
2023-02-02T10:44:53.513Z,7.40
2023-02-02T10:47:30.398Z,7.40
2023-02-02T10:50:21.926Z,7.50
2023-02-02T10:52:59.880Z,7.50
2023-02-02T10:55:37.133Z,7.60
2023-02-02T10:58:12.834Z,7.60
2023-02-02T11:00:46.460Z,7.60
2023-02-02T11:03:23.738Z,7.60
2023-02-02T11:06:38.169Z,7.60
2023-02-02T11:09:13.825Z,7.60
2023-02-02T11:11:49.042Z,7.70
2023-02-02T11:14:46.126Z,7.60
2023-02-02T11:17:22.417Z,7.70
2023-02-02T11:19:57.883Z,7.80
2023-02-02T11:22:35.293Z,7.90
2023-02-02T11:25:35.013Z,7.90
2023-02-02T11:28:24.019Z,7.90
2023-02-02T11:30:58.003Z,8.00
2023-02-02T11:33:35.085Z,8.00
2023-02-02T11:36:21.966Z,8.00
2023-02-02T11:39:20.050Z,8.00
2023-02-02T11:42:07.109Z,8.00
2023-02-02T11:44:48.606Z,7.90
2023-02-02T11:47:30.250Z,7.90
2023-02-02T11:50:04.527Z,7.80
2023-02-02T11:52:40.283Z,7.80
2023-02-02T11:55:32.405Z,7.70
2023-02-02T11:58:18.615Z,7.70
2023-02-02T12:01:24.046Z,7.70
2023-02-02T12:03:59.152Z,7.70
2023-02-02T12:06:38.780Z,7.70
2023-02-02T12:09:21.676Z,7.70
2023-02-02T12:12:15.527Z,7.70
2023-02-02T12:15:16.011Z,7.70
2023-02-02T12:17:52.321Z,7.70
2023-02-02T12:21:11.762Z,7.70
2023-02-02T12:24:34.664Z,7.60
2023-02-02T12:27:20.236Z,7.60
2023-02-02T12:30:06.586Z,7.60
2023-02-02T12:33:00.286Z,7.70
2023-02-02T12:35:56.155Z,7.70
2023-02-02T12:38:36.616Z,7.60
2023-02-02T12:41:30.707Z,7.70
2023-02-02T12:44:14.503Z,7.70
2023-02-02T12:47:15.415Z,7.60
2023-02-02T12:50:03.056Z,7.60
2023-02-02T12:53:10.271Z,7.60
2023-02-02T12:56:16.189Z,7.60
2023-02-02T12:59:05.035Z,7.60
2023-02-02T13:01:57.148Z,7.60
2023-02-02T13:04:58.670Z,7.60
2023-02-02T13:07:39.200Z,7.50
2023-02-02T13:10:33.681Z,7.50
2023-02-02T13:13:14.793Z,7.50
2023-02-02T13:15:55.064Z,7.40
2023-02-02T13:18:34.604Z,7.40
2023-02-02T13:21:12.460Z,7.40
2023-02-02T13:23:52.046Z,7.40
2023-02-02T13:26:38.848Z,7.30
2023-02-02T13:29:26.489Z,7.30
2023-02-02T13:32:17.227Z,7.30
2023-02-02T13:34:56.053Z,7.30
2023-02-02T13:37:52.054Z,7.30
2023-02-02T13:40:33.935Z,7.30
2023-02-02T13:43:22.466Z,7.20
2023-02-02T13:46:06.696Z,7.20
2023-02-02T13:48:49.486Z,7.20
2023-02-02T13:51:51.067Z,7.20
2023-02-02T13:54:35.795Z,7.20
2023-02-02T13:57:41.734Z,7.20
2023-02-02T14:00:28.746Z,7.20
2023-02-02T14:03:22.497Z,7.20
2023-02-02T14:06:10.637Z,7.20
2023-02-02T14:08:56.204Z,7.20
2023-02-02T14:11:35.409Z,7.30
2023-02-02T14:14:32.862Z,7.30
2023-02-02T14:17:13.285Z,7.30
2023-02-02T14:19:59.559Z,7.30
2023-02-02T14:22:41.467Z,7.30
2023-02-02T14:25:30.235Z,7.30
2023-02-02T14:28:13.198Z,7.30
2023-02-02T14:31:24.726Z,7.30
2023-02-02T14:34:37.673Z,7.30
2023-02-02T14:37:24.868Z,7.30
2023-02-02T14:40:06.682Z,7.30
2023-02-02T14:43:28.132Z,7.30
2023-02-02T14:46:12.150Z,7.30
2023-02-02T14:48:54.778Z,7.30
2023-02-02T14:51:31.825Z,7.30
2023-02-02T14:54:07.110Z,7.30
2023-02-02T14:56:50.917Z,7.30
2023-02-02T14:59:37.271Z,7.30
2023-02-02T15:02:36.827Z,7.20
2023-02-02T15:05:30.788Z,7.20
2023-02-02T15:08:28.057Z,7.20
2023-02-02T15:11:24.434Z,7.10
2023-02-02T15:14:07.281Z,7.10
2023-02-02T15:16:42.939Z,7.10
2023-02-02T15:19:32.725Z,7.10
2023-02-02T15:22:50.411Z,7.10
2023-02-02T15:25:34.363Z,7.00
2023-02-02T15:28:30.185Z,7.10
2023-02-02T15:31:11.179Z,7.10
2023-02-02T15:33:54.337Z,7.00
2023-02-02T15:36:33.541Z,7.00
2023-02-02T15:39:28.581Z,7.00
2023-02-02T15:42:23.814Z,7.00
2023-02-02T15:44:56.556Z,7.00
2023-02-02T15:47:33.913Z,7.00
2023-02-02T15:50:20.251Z,7.00
2023-02-02T15:52:54.721Z,7.00
2023-02-02T15:55:33.913Z,7.00
2023-02-02T15:58:41.941Z,7.00
2023-02-02T16:01:21.241Z,7.00
2023-02-02T16:03:56.641Z,7.00
2023-02-02T16:06:31.144Z,7.00
2023-02-02T16:09:05.476Z,7.00
2023-02-02T16:11:45.039Z,7.00
2023-02-02T16:14:31.153Z,7.00
2023-02-02T16:17:23.638Z,7.00
2023-02-02T16:20:17.594Z,7.00
2023-02-02T16:22:51.093Z,7.00
2023-02-02T16:25:25.389Z,7.00
2023-02-02T16:28:03.098Z,7.00
2023-02-02T16:30:39.869Z,7.00
2023-02-02T16:33:39.241Z,7.00
2023-02-02T16:36:25.143Z,7.00
2023-02-02T16:39:01.032Z,6.90
2023-02-02T16:41:35.889Z,6.90
2023-02-02T16:44:28.224Z,6.90
2023-02-02T16:47:01.425Z,6.90
2023-02-02T16:49:35.603Z,6.90
2023-02-02T16:52:18.099Z,6.90
2023-02-02T16:54:54.233Z,6.90
2023-02-02T16:57:33.084Z,6.90
2023-02-02T17:00:08.932Z,6.90
2023-02-02T17:02:48.138Z,6.90
2023-02-02T17:05:25.785Z,6.90
2023-02-02T17:08:05.434Z,6.90
2023-02-02T17:10:42.092Z,6.90
2023-02-02T17:13:34.628Z,6.80
2023-02-02T17:16:12.548Z,6.80
2023-02-02T17:18:45.713Z,6.80
2023-02-02T17:21:22.747Z,6.80
2023-02-02T17:23:56.104Z,6.70
2023-02-02T17:26:28.833Z,6.70
2023-02-02T17:29:04.932Z,6.70
2023-02-02T17:31:37.832Z,6.70
2023-02-02T17:34:14.245Z,6.70
2023-02-02T17:36:47.040Z,6.70
2023-02-02T17:39:19.777Z,6.70
2023-02-02T17:41:52.573Z,6.70
2023-02-02T17:44:25.333Z,6.70
2023-02-02T17:46:58.079Z,6.80
2023-02-02T17:49:30.822Z,6.80
2023-02-02T17:52:03.727Z,6.80
2023-02-02T17:54:36.425Z,6.80
2023-02-02T17:57:09.176Z,6.80
2023-02-02T17:59:41.875Z,6.80
2023-02-02T18:02:16.223Z,6.80
2023-02-02T18:04:48.895Z,6.80
2023-02-02T18:07:21.741Z,6.80
2023-02-02T18:09:54.437Z,6.70
2023-02-02T18:12:27.236Z,6.70
2023-02-02T18:15:00.014Z,6.70
2023-02-02T18:17:34.141Z,6.70
2023-02-02T18:20:07.621Z,6.70
2023-02-02T18:22:40.350Z,6.60
2023-02-02T18:25:13.101Z,6.60
2023-02-02T18:27:46.668Z,6.60
2023-02-02T18:30:20.272Z,6.60
2023-02-02T18:32:56.114Z,6.60
2023-02-02T18:35:28.788Z,6.60
2023-02-02T18:38:01.425Z,6.60
2023-02-02T18:40:34.156Z,6.60
2023-02-02T18:43:07.224Z,6.60
2023-02-02T18:45:39.881Z,6.60
2023-02-02T18:48:12.741Z,6.60
2023-02-02T18:50:45.632Z,6.60
2023-02-02T18:53:18.383Z,6.60
2023-02-02T18:55:51.129Z,6.60
2023-02-02T18:58:26.102Z,6.60
2023-02-02T19:00:58.772Z,6.60
2023-02-02T19:03:31.712Z,6.60
2023-02-02T19:06:23.759Z,6.60
2023-02-02T19:08:58.468Z,6.60
2023-02-02T19:11:36.756Z,6.60
2023-02-02T19:14:12.827Z,6.60
2023-02-02T19:16:47.782Z,6.60
2023-02-02T19:19:26.236Z,6.60
2023-02-02T19:22:13.670Z,6.60
2023-02-02T19:24:46.796Z,6.60
2023-02-02T19:27:24.505Z,6.60
2023-02-02T19:30:00.157Z,6.60
2023-02-02T19:32:33.525Z,6.60
2023-02-02T19:35:15.279Z,6.60
2023-02-02T19:37:49.460Z,6.50
2023-02-02T19:40:25.023Z,6.60
2023-02-02T19:43:08.578Z,6.60
2023-02-02T19:45:41.344Z,6.60
2023-02-02T19:48:17.119Z,6.60
2023-02-02T19:50:49.960Z,6.60
2023-02-02T19:53:35.058Z,6.60
2023-02-02T19:56:25.028Z,6.60
2023-02-02T19:58:59.395Z,6.60
2023-02-02T20:01:34.894Z,6.60
2023-02-02T20:04:14.665Z,6.60
2023-02-02T20:06:58.588Z,6.60
2023-02-02T20:09:35.145Z,6.60
2023-02-02T20:12:27.310Z,6.60
2023-02-02T20:15:00.051Z,6.60
2023-02-02T20:17:34.335Z,6.60
2023-02-02T20:20:25.214Z,6.70
2023-02-02T20:22:58.274Z,6.70
2023-02-02T20:25:32.226Z,6.70
2023-02-02T20:28:22.161Z,6.70
2023-02-02T20:30:54.849Z,6.70
2023-02-02T20:33:27.682Z,6.70
2023-02-02T20:36:02.481Z,6.70
2023-02-02T20:38:38.974Z,6.70
2023-02-02T20:41:11.753Z,6.70
2023-02-02T20:43:46.162Z,6.70
2023-02-02T20:46:18.909Z,6.70
2023-02-02T20:48:51.687Z,6.70
2023-02-02T20:51:24.670Z,6.70
2023-02-02T20:53:57.666Z,6.70
2023-02-02T20:56:30.344Z,6.70
2023-02-02T20:59:05.804Z,6.70
2023-02-02T21:01:40.156Z,6.70
2023-02-02T21:04:13.235Z,6.70
2023-02-02T21:06:48.928Z,6.70
2023-02-02T21:09:22.053Z,6.70
2023-02-02T21:11:54.783Z,6.70
2023-02-02T21:14:27.450Z,6.70
2023-02-02T21:17:13.922Z,6.70
2023-02-02T21:19:47.617Z,6.70
2023-02-02T21:22:20.346Z,6.70
2023-02-02T21:24:53.393Z,6.70
2023-02-02T21:27:26.159Z,6.70
2023-02-02T21:29:58.817Z,6.70
2023-02-02T21:32:32.960Z,6.70
2023-02-02T21:35:06.546Z,6.70
2023-02-02T21:37:40.466Z,6.70
2023-02-02T21:40:19.406Z,6.70
2023-02-02T21:42:52.124Z,6.70
2023-02-02T21:45:34.285Z,6.70
2023-02-02T21:48:19.909Z,6.70
2023-02-02T21:50:52.622Z,6.70
2023-02-02T21:53:27.263Z,6.70
2023-02-02T21:56:00.232Z,6.70
2023-02-02T21:58:35.567Z,6.70
2023-02-02T22:01:25.682Z,6.70
2023-02-02T22:03:58.595Z,6.70
2023-02-02T22:06:36.006Z,6.70
2023-02-02T22:09:11.698Z,6.70
2023-02-02T22:11:59.222Z,6.70
2023-02-02T22:14:37.808Z,6.70
2023-02-02T22:17:25.727Z,6.70
2023-02-02T22:20:20.934Z,6.70
2023-02-02T22:22:54.491Z,6.70
2023-02-02T22:25:36.547Z,6.70
2023-02-02T22:28:12.329Z,6.70
2023-02-02T22:30:45.382Z,6.70
2023-02-02T22:33:18.891Z,6.70
2023-02-02T22:35:51.660Z,6.70
2023-02-02T22:38:25.597Z,6.70
2023-02-02T22:40:58.319Z,6.70
2023-02-02T22:43:30.955Z,6.70
2023-02-02T22:46:03.770Z,6.70
2023-02-02T22:48:36.498Z,6.70
2023-02-02T22:51:09.323Z,6.70
2023-02-02T22:53:42.029Z,6.70
2023-02-02T22:56:15.497Z,6.70
2023-02-02T22:58:48.172Z,6.70
2023-02-02T23:01:20.845Z,6.70
2023-02-02T23:03:53.570Z,6.70
2023-02-02T23:06:26.322Z,6.70
2023-02-02T23:08:58.927Z,6.70
2023-02-02T23:11:31.604Z,6.80
2023-02-02T23:14:04.322Z,6.80
2023-02-02T23:16:37.133Z,6.80
2023-02-02T23:19:09.787Z,6.80
2023-02-02T23:21:42.466Z,6.80
2023-02-02T23:24:15.165Z,6.80
2023-02-02T23:26:47.848Z,6.80
2023-02-02T23:29:20.510Z,6.80
2023-02-02T23:31:53.250Z,6.70
2023-02-02T23:34:25.919Z,6.70
2023-02-02T23:36:58.697Z,6.80
2023-02-02T23:39:31.427Z,6.70
2023-02-02T23:42:04.195Z,6.70
2023-02-02T23:44:37.295Z,6.70
2023-02-02T23:47:10.727Z,6.70
2023-02-02T23:49:43.942Z,6.70
2023-02-02T23:52:17.151Z,6.70
2023-02-02T23:54:49.834Z,6.70
2023-02-02T23:57:22.594Z,6.70
2023-02-02T23:59:55.297Z,6.70
